Time;durP1;ratioP1;P1;durP2;ratioP2;P2;SDS_P1;SDS_P2;PMS_P1;PMS_P2;Temp;Humidity;BMP_temperature;BMP_pressure;BME280_temperature;BME280_humidity;BME280_pressure;Samples;Min_cycle;Max_cycle;Signal;HPM_P1;HPM_P2
2022/03/09 00:00:50;;;;;;;9.35;8.10;;;8.50;99.90;;;;;;5052621;28;20049;-60
2022/03/09 00:03:17;;;;;;;10.60;8.68;;;8.50;99.90;;;;;;5044219;28;20052;-60
2022/03/09 00:05:44;;;;;;;9.82;8.10;;;8.50;99.90;;;;;;5053972;28;20041;-60
2022/03/09 00:08:11;;;;;;;9.18;7.43;;;8.50;99.90;;;;;;5049503;28;20076;-60
2022/03/09 00:10:37;;;;;;;9.50;7.63;;;8.60;99.90;;;;;;5055175;28;20068;-60
2022/03/09 00:13:04;;;;;;;9.55;7.40;;;8.60;99.90;;;;;;5026391;28;20621;-60
2022/03/09 00:15:31;;;;;;;9.23;7.88;;;8.60;99.90;;;;;;5059884;28;20060;-60
2022/03/09 00:17:57;;;;;;;9.82;7.82;;;8.60;99.90;;;;;;5060854;28;20673;-60
2022/03/09 00:20:27;;;;;;;10.93;8.40;;;8.70;99.90;;;;;;5059778;28;20508;-60
2022/03/09 00:22:53;;;;;;;9.90;8.65;;;8.70;99.90;;;;;;5061015;28;20058;-60
2022/03/09 00:25:20;;;;;;;9.00;7.57;;;8.70;99.90;;;;;;5060634;28;20041;-60
2022/03/09 00:27:47;;;;;;;9.10;7.72;;;8.70;99.90;;;;;;5063222;28;20107;-60
2022/03/09 00:30:14;;;;;;;9.18;7.95;;;8.80;99.90;;;;;;5059623;28;20556;-61
2022/03/09 00:32:40;;;;;;;10.38;8.02;;;8.80;99.90;;;;;;5046358;28;20123;-60
2022/03/09 00:35:08;;;;;;;10.20;7.80;;;8.90;99.90;;;;;;5037108;28;20427;-60
2022/03/09 00:37:34;;;;;;;9.10;7.63;;;8.90;99.90;;;;;;5046950;28;20629;-60
2022/03/09 00:40:02;;;;;;;8.77;7.43;;;8.90;99.90;;;;;;5037992;28;20056;-60
2022/03/09 00:42:29;;;;;;;9.88;7.55;;;8.90;99.90;;;;;;5033924;28;20196;-60
2022/03/09 00:44:56;;;;;;;8.98;7.30;;;9.00;99.90;;;;;;5035892;28;20048;-60
2022/03/09 00:47:23;;;;;;;9.55;7.35;;;9.00;99.90;;;;;;5046224;28;20595;-60
2022/03/09 00:49:49;;;;;;;10.02;8.20;;;9.00;99.90;;;;;;5047229;28;20128;-60
2022/03/09 00:52:16;;;;;;;7.57;6.70;;;9.00;99.90;;;;;;5045909;28;20120;-60
2022/03/09 00:54:43;;;;;;;8.60;7.38;;;9.10;99.90;;;;;;5026151;28;20447;-60
2022/03/09 00:57:09;;;;;;;8.85;7.28;;;9.10;99.90;;;;;;5051000;28;20048;-60
2022/03/09 00:59:38;;;;;;;8.13;7.32;;;9.10;99.90;;;;;;5057811;28;20114;-61
2022/03/09 01:02:05;;;;;;;10.07;7.95;;;9.10;99.90;;;;;;5044571;28;20551;-61
2022/03/09 01:04:34;;;;;;;9.50;7.63;;;9.10;99.90;;;;;;5056218;28;20045;-60
2022/03/09 01:07:02;;;;;;;8.85;7.43;;;9.10;99.90;;;;;;5045139;28;20084;-60
2022/03/09 01:09:29;;;;;;;10.15;8.13;;;9.10;99.90;;;;;;5049752;28;20123;-60
2022/03/09 01:11:57;;;;;;;10.35;8.23;;;9.10;99.90;;;;;;5062942;28;20436;-60
2022/03/09 01:14:24;;;;;;;8.52;7.20;;;9.10;99.90;;;;;;5063643;28;20433;-60
2022/03/09 01:16:51;;;;;;;9.77;8.20;;;9.20;99.90;;;;;;5054710;28;20053;-60
2022/03/09 01:19:17;;;;;;;10.35;8.60;;;9.10;99.90;;;;;;5047817;28;20075;-60
2022/03/09 01:21:44;;;;;;;9.52;8.27;;;9.10;99.90;;;;;;5063380;28;20127;-60
2022/03/09 01:24:11;;;;;;;10.95;8.82;;;9.10;99.90;;;;;;5063659;28;20049;-60
2022/03/09 01:26:38;;;;;;;10.10;8.40;;;9.10;99.90;;;;;;5063443;28;20136;-60
2022/03/09 01:29:06;;;;;;;9.77;7.80;;;9.10;99.90;;;;;;5041445;28;20050;-60
2022/03/09 01:31:34;;;;;;;9.48;7.75;;;9.10;99.90;;;;;;5061248;28;20053;-60
2022/03/09 01:34:01;;;;;;;10.15;9.13;;;9.10;99.90;;;;;;5046105;28;20041;-60
2022/03/09 01:36:28;;;;;;;11.57;9.80;;;9.10;99.90;;;;;;5062662;28;20080;-60
2022/03/09 01:38:54;;;;;;;13.25;10.50;;;9.10;99.90;;;;;;5055899;28;20072;-60
2022/03/09 01:41:21;;;;;;;12.77;11.27;;;9.10;99.90;;;;;;5051494;28;20415;-60
2022/03/09 01:44:08;;;;;;;11.88;9.35;;;9.10;99.90;;;;;;5054035;28;20056;-61
2022/03/09 01:46:35;;;;;;;9.43;7.80;;;9.20;99.90;;;;;;5061573;28;20048;-60
2022/03/09 01:49:03;;;;;;;12.77;9.38;;;9.20;99.90;;;;;;5037661;28;20052;-60
2022/03/09 01:51:32;;;;;;;12.93;10.18;;;9.10;99.90;;;;;;5062275;28;20071;-58
2022/03/09 01:53:59;;;;;;;11.00;8.73;;;9.20;99.90;;;;;;5036230;28;20118;-61
2022/03/09 01:56:26;;;;;;;11.45;9.38;;;9.20;99.90;;;;;;5051185;28;20076;-58
2022/03/09 01:58:54;;;;;;;12.63;9.98;;;9.20;99.90;;;;;;5048436;28;20417;-59
2022/03/09 02:01:22;;;;;;;10.75;9.18;;;9.20;99.90;;;;;;5061660;28;20090;-59
2022/03/09 02:03:49;;;;;;;9.68;8.40;;;9.20;99.90;;;;;;5050183;28;20499;-59
2022/03/09 02:06:16;;;;;;;11.13;8.63;;;9.30;99.90;;;;;;5056261;28;20135;-59
2022/03/09 02:09:44;;;;;;;10.18;9.13;;;9.30;99.90;;;;;;5043606;28;20451;-59
2022/03/09 02:11:38;;;;;;;11.43;9.65;;;9.30;99.90;;;;;;5021152;28;20084;-61
2022/03/09 02:14:05;;;;;;;11.15;9.25;;;9.30;99.90;;;;;;5035150;28;20083;-60
2022/03/09 02:16:32;;;;;;;10.35;8.43;;;9.30;99.90;;;;;;5043401;28;20083;-60
2022/03/09 02:19:02;;;;;;;9.65;8.18;;;9.40;99.90;;;;;;5051852;28;20053;-61
2022/03/09 02:21:28;;;;;;;10.50;8.45;;;9.40;99.90;;;;;;5042950;28;20124;-59
2022/03/09 02:23:55;;;;;;;9.50;7.75;;;9.50;99.90;;;;;;5017088;28;20440;-61
2022/03/09 02:26:22;;;;;;;10.07;8.07;;;9.40;99.90;;;;;;5044503;28;20623;-58
2022/03/09 02:28:49;;;;;;;10.57;8.25;;;9.40;99.90;;;;;;5062484;28;20464;-61
2022/03/09 02:31:15;;;;;;;9.85;7.72;;;9.50;99.90;;;;;;5060433;28;20072;-58
2022/03/09 02:33:45;;;;;;;8.75;7.45;;;9.50;99.90;;;;;;5047458;28;20458;-60
2022/03/09 02:36:12;;;;;;;8.40;7.50;;;9.50;99.90;;;;;;5045403;28;20116;-60
2022/03/09 02:38:39;;;;;;;9.18;7.43;;;9.50;99.90;;;;;;5044160;28;20751;-61
2022/03/09 02:41:06;;;;;;;8.10;6.93;;;9.50;99.90;;;;;;5060895;28;20506;-61
2022/03/09 02:43:33;;;;;;;7.90;6.90;;;9.60;99.90;;;;;;5062870;28;20151;-60
2022/03/09 02:46:00;;;;;;;9.02;6.82;;;9.60;99.90;;;;;;5063712;28;20091;-61
2022/03/09 02:48:27;;;;;;;8.13;6.60;;;9.60;99.90;;;;;;5061894;28;20541;-58
2022/03/09 02:50:54;;;;;;;8.38;6.75;;;9.60;99.90;;;;;;5044688;28;20124;-61
2022/03/09 02:53:21;;;;;;;6.97;5.70;;;9.60;99.90;;;;;;5062570;28;20083;-60
2022/03/09 02:55:47;;;;;;;7.22;5.97;;;9.60;99.90;;;;;;5049995;28;20119;-60
2022/03/09 02:58:14;;;;;;;6.45;5.05;;;9.70;99.90;;;;;;5063141;28;20048;-58
2022/03/09 03:00:41;;;;;;;6.28;5.25;;;9.70;99.90;;;;;;5030086;28;20475;-58
2022/03/09 03:03:08;;;;;;;5.97;4.80;;;9.70;99.90;;;;;;5050909;28;20395;-60
2022/03/09 03:05:35;;;;;;;7.15;5.53;;;9.60;99.90;;;;;;5063501;28;20124;-61
2022/03/09 03:08:01;;;;;;;6.53;5.55;;;9.60;99.90;;;;;;5062827;28;20263;-58
2022/03/09 03:10:28;;;;;;;6.30;5.22;;;9.60;99.90;;;;;;5062280;28;20159;-60
2022/03/09 03:12:55;;;;;;;5.97;4.60;;;9.70;99.90;;;;;;5061216;28;20054;-61
2022/03/09 03:15:22;;;;;;;6.32;4.70;;;9.70;99.90;;;;;;5062856;28;20076;-60
2022/03/09 03:17:48;;;;;;;5.97;4.97;;;9.70;99.90;;;;;;5062461;28;20162;-61
2022/03/09 03:20:15;;;;;;;6.28;4.90;;;9.70;99.90;;;;;;5052459;28;20045;-60
2022/03/09 03:22:42;;;;;;;6.10;5.03;;;9.70;99.90;;;;;;5048605;28;20119;-61
2022/03/09 03:25:08;;;;;;;6.50;4.93;;;9.70;99.90;;;;;;5062280;28;20135;-60
2022/03/09 03:27:35;;;;;;;5.45;4.15;;;9.70;99.90;;;;;;5062128;28;20106;-61
2022/03/09 03:30:02;;;;;;;5.00;4.25;;;9.70;99.90;;;;;;5062264;28;20124;-60
2022/03/09 03:32:29;;;;;;;5.72;4.93;;;9.60;99.90;;;;;;5060976;28;20135;-59
2022/03/09 03:34:56;;;;;;;5.57;4.57;;;9.60;99.90;;;;;;5050824;28;20076;-60
2022/03/09 03:37:23;;;;;;;5.57;4.22;;;9.70;99.90;;;;;;5044343;28;20118;-60
2022/03/09 03:39:52;;;;;;;6.32;4.70;;;9.70;99.90;;;;;;5048917;28;20051;-60
2022/03/09 03:42:19;;;;;;;4.53;3.50;;;9.60;99.90;;;;;;5061808;28;20115;-60
2022/03/09 03:44:45;;;;;;;6.00;3.67;;;9.60;99.90;;;;;;5042181;28;20135;-60
2022/03/09 03:47:12;;;;;;;4.95;4.43;;;9.60;99.90;;;;;;5024879;28;20074;-60
2022/03/09 03:49:39;;;;;;;5.88;4.30;;;9.60;99.90;;;;;;5046788;28;20139;-60
2022/03/09 03:52:06;;;;;;;4.30;3.78;;;9.70;99.90;;;;;;5044100;28;20083;-60
2022/03/09 03:54:32;;;;;;;4.40;3.72;;;9.70;99.90;;;;;;5058699;28;20155;-60
2022/03/09 03:56:59;;;;;;;5.10;3.63;;;9.70;99.90;;;;;;5043056;28;20098;-60
2022/03/09 03:59:26;;;;;;;4.85;3.42;;;9.70;99.90;;;;;;5045299;28;20140;-60
2022/03/09 04:01:53;;;;;;;4.80;4.15;;;9.70;99.90;;;;;;5060930;28;20405;-60
2022/03/09 04:04:20;;;;;;;5.05;3.80;;;9.70;99.90;;;;;;5058418;28;20051;-60
2022/03/09 04:06:46;;;;;;;6.65;3.78;;;9.70;99.90;;;;;;5043049;28;20091;-60
2022/03/09 04:09:13;;;;;;;4.82;4.05;;;9.70;99.90;;;;;;5043369;28;20120;-60
2022/03/09 04:11:40;;;;;;;5.28;3.92;;;9.70;99.90;;;;;;5061251;28;20119;-60
2022/03/09 04:14:06;;;;;;;6.05;4.25;;;9.60;99.90;;;;;;5061785;28;20624;-59
2022/03/09 04:16:33;;;;;;;4.88;3.47;;;9.60;99.90;;;;;;5057933;28;20448;-60
2022/03/09 04:19:03;;;;;;;7.05;3.40;;;9.60;99.90;;;;;;5036356;28;20048;-59
2022/03/09 04:21:29;;;;;;;4.57;3.35;;;9.60;99.90;;;;;;5061091;28;20545;-60
2022/03/09 04:23:56;;;;;;;5.00;3.80;;;9.60;99.90;;;;;;5053993;28;20132;-60
2022/03/09 04:26:23;;;;;;;3.92;3.42;;;9.50;99.90;;;;;;5042669;28;20536;-61
2022/03/09 04:28:50;;;;;;;5.60;4.22;;;9.50;99.90;;;;;;5055251;28;20109;-60
2022/03/09 04:31:17;;;;;;;7.88;4.95;;;9.50;99.90;;;;;;5061491;28;20036;-60
2022/03/09 04:33:46;;;;;;;6.00;4.68;;;9.50;99.90;;;;;;5060426;28;20052;-60
2022/03/09 04:36:13;;;;;;;5.75;4.55;;;9.50;99.90;;;;;;5061520;28;20128;-60
2022/03/09 04:38:40;;;;;;;6.03;4.53;;;9.50;99.90;;;;;;5061149;28;20637;-59
2022/03/09 04:41:09;;;;;;;6.55;4.60;;;9.50;99.90;;;;;;5055811;28;20051;-60
2022/03/09 04:43:36;;;;;;;6.65;4.28;;;9.50;99.90;;;;;;5049376;28;20132;-60
2022/03/09 04:46:02;;;;;;;10.05;5.25;;;9.50;99.90;;;;;;5055607;28;20054;-59
2022/03/09 04:48:30;;;;;;;5.45;4.43;;;9.50;99.90;;;;;;5053311;28;20783;-60
2022/03/09 04:50:57;;;;;;;6.65;4.35;;;9.60;99.90;;;;;;5055375;28;20072;-61
2022/03/09 04:53:24;;;;;;;5.03;4.30;;;9.60;99.90;;;;;;5042747;28;20138;-60
2022/03/09 04:55:50;;;;;;;5.65;4.50;;;9.60;99.90;;;;;;5037591;28;20071;-61
2022/03/09 04:58:17;;;;;;;5.43;3.88;;;9.50;99.90;;;;;;5060977;28;20070;-60
2022/03/09 05:00:44;;;;;;;8.05;4.22;;;9.50;99.90;;;;;;5037950;28;20152;-60
2022/03/09 05:03:11;;;;;;;4.53;3.40;;;9.60;99.90;;;;;;5048978;28;20132;-60
2022/03/09 05:05:38;;;;;;;5.88;3.67;;;9.60;99.90;;;;;;5038437;28;20178;-60
2022/03/09 05:08:04;;;;;;;5.63;3.45;;;9.60;99.90;;;;;;5054424;28;20127;-60
2022/03/09 05:10:31;;;;;;;3.88;3.20;;;9.60;99.90;;;;;;5052353;28;20143;-61
2022/03/09 05:12:58;;;;;;;4.28;3.85;;;9.60;99.90;;;;;;5046854;28;20076;-60
2022/03/09 05:15:25;;;;;;;4.63;3.33;;;9.70;99.90;;;;;;5036385;28;20101;-59
2022/03/09 05:17:51;;;;;;;3.45;2.78;;;9.60;99.90;;;;;;5053084;28;20082;-60
2022/03/09 05:20:20;;;;;;;5.15;3.50;;;9.50;99.90;;;;;;5063742;28;20247;-59
2022/03/09 05:22:48;;;;;;;3.38;2.70;;;9.50;99.90;;;;;;5040943;28;20136;-59
2022/03/09 05:25:16;;;;;;;4.47;3.33;;;9.50;99.90;;;;;;5053724;28;20128;-59
2022/03/09 05:27:42;;;;;;;5.25;2.67;;;9.40;99.90;;;;;;5053486;28;20448;-60
2022/03/09 05:30:09;;;;;;;4.68;2.85;;;9.40;99.90;;;;;;5057593;28;20052;-60
2022/03/09 05:32:38;;;;;;;5.22;3.17;;;9.40;99.90;;;;;;5051558;28;20645;-60
2022/03/09 05:35:05;;;;;;;4.45;2.72;;;9.40;99.90;;;;;;5049705;28;20124;-60
2022/03/09 05:37:39;;;;;;;4.63;2.65;;;9.40;99.90;;;;;;5055277;28;20616;-59
2022/03/09 05:40:06;;;;;;;5.15;2.78;;;9.50;99.90;;;;;;5054581;28;20053;-60
2022/03/09 05:42:34;;;;;;;5.50;2.47;;;9.50;99.90;;;;;;5063036;28;20147;-60
2022/03/09 05:45:00;;;;;;;3.70;2.33;;;9.50;99.90;;;;;;5064150;28;20132;-60
2022/03/09 05:47:45;;;;;;;4.60;2.80;;;9.50;99.90;;;;;;5040478;28;20681;-59
2022/03/09 05:50:12;;;;;;;4.82;3.15;;;9.50;99.90;;;;;;5057612;28;20072;-60
2022/03/09 05:52:38;;;;;;;4.68;3.00;;;9.50;99.90;;;;;;5059431;28;20049;-60
2022/03/09 05:55:06;;;;;;;5.07;2.40;;;9.40;99.90;;;;;;5062708;28;20049;-60
2022/03/09 05:57:32;;;;;;;4.22;2.72;;;9.50;99.90;;;;;;5061593;28;20523;-60
2022/03/09 06:00:01;;;;;;;3.63;2.00;;;9.50;99.90;;;;;;5049091;28;20068;-60
2022/03/09 06:02:28;;;;;;;5.40;2.30;;;9.50;99.90;;;;;;5036505;28;20195;-60
2022/03/09 06:04:55;;;;;;;4.25;2.15;;;9.50;99.90;;;;;;5063047;28;20129;-60
2022/03/09 06:07:22;;;;;;;3.72;2.03;;;9.50;99.90;;;;;;5063632;28;20127;-59
2022/03/09 06:09:49;;;;;;;4.00;2.30;;;9.50;99.90;;;;;;5062806;28;20076;-60
2022/03/09 06:12:16;;;;;;;4.45;2.13;;;9.50;99.90;;;;;;5057990;28;20554;-60
2022/03/09 06:14:44;;;;;;;4.78;2.42;;;9.50;99.90;;;;;;5049413;28;20083;-59
2022/03/09 06:17:10;;;;;;;7.60;2.60;;;9.50;99.90;;;;;;5064081;28;20128;-60
2022/03/09 06:19:37;;;;;;;4.70;2.78;;;9.50;99.90;;;;;;5062046;28;20076;-58
2022/03/09 06:22:04;;;;;;;5.22;2.63;;;9.50;99.90;;;;;;5056462;28;20132;-59
2022/03/09 06:24:30;;;;;;;6.78;2.40;;;9.40;99.90;;;;;;5054075;28;20785;-60
2022/03/09 06:26:58;;;;;;;4.28;2.47;;;9.50;99.90;;;;;;5055014;28;20131;-58
2022/03/09 06:29:25;;;;;;;4.45;2.55;;;9.50;99.90;;;;;;5057258;28;20569;-60
2022/03/09 06:31:55;;;;;;;7.30;2.80;;;9.40;99.90;;;;;;5057402;28;20052;-59
2022/03/09 06:34:22;;;;;;;5.22;2.58;;;9.50;99.90;;;;;;5052645;28;20504;-59
2022/03/09 06:36:51;;;;;;;5.07;2.20;;;9.50;99.90;;;;;;5058255;28;20094;-59
2022/03/09 06:39:17;;;;;;;4.30;2.25;;;9.50;99.90;;;;;;5057811;28;20074;-59
2022/03/09 06:41:45;;;;;;;6.03;2.90;;;9.50;99.90;;;;;;5053977;28;20072;-58
2022/03/09 06:44:13;;;;;;;4.90;3.05;;;9.50;99.90;;;;;;5054943;28;20048;-60
2022/03/09 06:46:41;;;;;;;4.13;2.38;;;9.50;99.90;;;;;;5055717;28;20205;-59
2022/03/09 06:49:07;;;;;;;3.75;2.90;;;9.50;99.90;;;;;;5054061;28;20048;-60
2022/03/09 06:51:34;;;;;;;6.22;2.78;;;9.50;99.90;;;;;;5059240;28;20188;-59
2022/03/09 06:54:01;;;;;;;5.30;2.92;;;9.50;99.90;;;;;;5053061;28;20148;-59
2022/03/09 06:56:28;;;;;;;5.35;2.95;;;9.60;99.90;;;;;;5060567;28;20080;-60
2022/03/09 06:58:54;;;;;;;5.15;2.33;;;9.60;99.90;;;;;;5052808;28;20044;-59
2022/03/09 07:01:28;;;;;;;4.40;2.10;;;9.60;99.90;;;;;;5056997;28;20369;-60
2022/03/09 07:03:55;;;;;;;3.58;1.92;;;9.50;99.90;;;;;;5050063;28;20148;-59
2022/03/09 07:06:22;;;;;;;4.90;2.65;;;9.60;99.90;;;;;;5051351;28;20523;-59
2022/03/09 07:08:50;;;;;;;5.22;2.55;;;9.60;99.90;;;;;;5052536;28;20055;-60
2022/03/09 07:11:16;;;;;;;4.40;2.47;;;9.60;99.90;;;;;;5041025;28;20957;-61
2022/03/09 07:13:43;;;;;;;3.42;2.53;;;9.70;99.90;;;;;;5061867;28;20124;-60
2022/03/09 07:16:10;;;;;;;5.13;2.97;;;9.60;99.90;;;;;;5058791;28;20127;-60
2022/03/09 07:18:37;;;;;;;4.55;2.10;;;9.60;99.90;;;;;;5058153;28;20084;-60
2022/03/09 07:21:04;;;;;;;3.65;2.10;;;9.60;99.90;;;;;;5024058;28;20052;-60
2022/03/09 07:23:31;;;;;;;6.65;2.65;;;9.70;99.90;;;;;;5053143;28;20680;-59
2022/03/09 07:25:58;;;;;;;6.03;2.65;;;9.70;99.90;;;;;;5058849;28;20143;-60
2022/03/09 07:28:25;;;;;;;5.30;2.40;;;9.70;99.90;;;;;;5061510;28;20048;-60
2022/03/09 07:30:51;;;;;;;6.25;2.35;;;9.80;99.90;;;;;;5060707;28;20650;-59
2022/03/09 07:33:18;;;;;;;5.10;2.28;;;9.80;99.90;;;;;;5049461;28;21724;-60
2022/03/09 07:35:45;;;;;;;4.90;2.63;;;9.90;99.90;;;;;;5059581;28;20214;-60
2022/03/09 07:38:13;;;;;;;5.25;2.15;;;9.90;99.90;;;;;;5057205;28;20056;-60
2022/03/09 07:40:40;;;;;;;6.30;2.90;;;9.90;99.90;;;;;;5042251;28;20105;-59
2022/03/09 07:43:07;;;;;;;4.43;2.15;;;9.90;99.90;;;;;;5054161;28;20171;-60
2022/03/09 07:45:34;;;;;;;5.72;2.25;;;10.00;99.90;;;;;;5058499;28;20143;-59
2022/03/09 07:48:01;;;;;;;4.63;2.20;;;10.00;99.90;;;;;;5059204;28;20084;-61
2022/03/09 07:50:27;;;;;;;5.88;2.00;;;10.10;99.90;;;;;;5044567;28;20139;-60
2022/03/09 07:52:54;;;;;;;4.50;2.10;;;10.10;99.90;;;;;;5045951;28;20056;-61
2022/03/09 07:55:21;;;;;;;3.25;1.88;;;10.10;99.90;;;;;;5059090;28;20175;-60
2022/03/09 07:57:52;;;;;;;3.90;2.17;;;10.20;99.90;;;;;;5059139;28;20491;-61
2022/03/09 08:00:19;;;;;;;3.95;2.03;;;10.20;99.90;;;;;;5057943;28;20134;-61
2022/03/09 08:02:46;;;;;;;3.63;1.98;;;10.20;99.90;;;;;;5060157;28;20053;-60
2022/03/09 08:05:13;;;;;;;4.07;2.30;;;10.30;99.90;;;;;;5058491;28;20143;-61
2022/03/09 08:07:39;;;;;;;5.07;2.03;;;10.30;99.90;;;;;;5040926;28;20072;-60
2022/03/09 08:10:09;;;;;;;2.90;1.70;;;10.40;99.90;;;;;;5053440;28;20476;-61
2022/03/09 08:12:36;;;;;;;4.43;1.95;;;10.40;99.90;;;;;;5055489;28;20233;-60
2022/03/09 08:15:03;;;;;;;5.88;2.10;;;10.50;99.90;;;;;;5060693;28;20143;-61
2022/03/09 08:17:30;;;;;;;5.47;1.88;;;10.50;99.90;;;;;;5059958;28;20415;-60
2022/03/09 08:19:57;;;;;;;5.07;1.90;;;10.50;99.90;;;;;;5055683;28;20124;-61
2022/03/09 08:22:24;;;;;;;3.90;1.63;;;10.60;99.90;;;;;;5048158;28;20131;-60
2022/03/09 08:24:51;;;;;;;5.22;2.17;;;10.60;99.90;;;;;;5049801;28;20053;-59
2022/03/09 08:27:18;;;;;;;4.18;2.35;;;10.70;99.90;;;;;;5057835;28;20049;-59
2022/03/09 08:29:44;;;;;;;3.20;1.30;;;10.80;99.90;;;;;;5060918;28;20056;-60
2022/03/09 08:32:12;;;;;;;5.43;1.90;;;10.80;99.90;;;;;;5033869;28;20106;-59
2022/03/09 08:34:39;;;;;;;4.38;2.13;;;10.90;99.90;;;;;;5047277;28;20152;-59
2022/03/09 08:37:06;;;;;;;5.15;1.90;;;11.00;99.90;;;;;;5040513;28;20476;-59
2022/03/09 08:39:32;;;;;;;3.42;1.70;;;11.00;99.90;;;;;;5059078;28;20411;-58
2022/03/09 08:41:59;;;;;;;4.28;2.17;;;11.10;99.90;;;;;;5061404;28;20857;-59
2022/03/09 08:44:41;;;;;;;6.22;2.00;;;11.10;99.90;;;;;;5059822;28;20054;-59
2022/03/09 08:47:08;;;;;;;3.45;1.70;;;11.10;99.90;;;;;;5041139;28;20045;-60
2022/03/09 08:49:39;;;;;;;4.80;1.98;;;11.00;99.90;;;;;;5062844;28;20561;-59
2022/03/09 08:52:07;;;;;;;4.00;1.98;;;11.10;99.90;;;;;;5031449;28;20486;-59
2022/03/09 08:54:34;;;;;;;4.43;1.50;;;11.10;99.90;;;;;;5053072;28;20122;-59
2022/03/09 08:57:01;;;;;;;4.20;1.95;;;11.20;99.90;;;;;;5044468;28;20164;-59
2022/03/09 08:59:27;;;;;;;6.38;1.92;;;11.20;99.90;;;;;;5060066;28;20562;-58
2022/03/09 09:01:54;;;;;;;4.70;1.73;;;11.20;99.90;;;;;;5038192;28;20550;-59
2022/03/09 09:04:41;;;;;;;4.88;1.85;;;11.20;99.90;;;;;;5048274;28;20558;-58
2022/03/09 09:07:08;;;;;;;5.25;1.70;;;11.30;99.90;;;;;;5060001;28;20045;-60
2022/03/09 09:09:35;;;;;;;3.35;1.70;;;11.40;99.90;;;;;;5054496;28;20052;-60
2022/03/09 09:12:02;;;;;;;4.47;1.90;;;11.40;99.90;;;;;;5062206;28;20669;-60
2022/03/09 09:14:29;;;;;;;3.70;1.98;;;11.50;99.90;;;;;;5056323;28;20483;-59
2022/03/09 09:16:56;;;;;;;6.15;2.13;;;11.50;99.90;;;;;;5055118;28;20091;-59
2022/03/09 09:19:23;;;;;;;6.82;2.13;;;11.50;99.90;;;;;;5061729;28;20134;-60
2022/03/09 09:21:50;;;;;;;4.75;1.83;;;11.60;99.90;;;;;;5060667;28;20063;-60
2022/03/09 09:24:17;;;;;;;3.45;1.73;;;11.70;99.90;;;;;;5050249;28;20139;-61
2022/03/09 09:26:44;;;;;;;5.43;1.77;;;11.70;99.90;;;;;;5059138;28;20850;-60
2022/03/09 09:29:17;;;;;;;5.68;2.97;;;11.80;99.90;;;;;;5063476;28;20163;-60
2022/03/09 09:31:45;;;;;;;5.03;1.70;;;11.80;99.90;;;;;;5056166;28;20059;-60
2022/03/09 09:34:12;;;;;;;5.68;2.40;;;11.90;99.90;;;;;;5062499;28;20160;-60
2022/03/09 09:36:42;;;;;;;5.28;2.22;;;12.00;99.90;;;;;;5054547;28;20107;-60
2022/03/09 09:39:09;;;;;;;5.93;2.30;;;12.00;99.90;;;;;;5043464;28;20599;-61
2022/03/09 09:41:36;;;;;;;5.38;2.20;;;12.00;99.90;;;;;;5061494;28;20213;-60
2022/03/09 09:44:04;;;;;;;4.22;1.92;;;11.90;99.90;;;;;;5046217;28;20083;-61
2022/03/09 09:46:30;;;;;;;3.38;1.63;;;11.90;99.90;;;;;;5062410;28;20084;-59
2022/03/09 09:48:57;;;;;;;7.93;2.95;;;11.80;99.90;;;;;;5053694;28;20168;-60
2022/03/09 09:51:24;;;;;;;4.50;1.70;;;11.80;99.90;;;;;;5053726;28;20135;-60
2022/03/09 09:53:50;;;;;;;3.35;1.50;;;11.80;99.90;;;;;;5036627;28;20079;-60
2022/03/09 09:56:17;;;;;;;4.50;1.63;;;11.80;99.90;;;;;;5016339;28;20148;-59
2022/03/09 09:58:44;;;;;;;5.28;1.88;;;11.80;99.90;;;;;;5024909;28;20467;-60
2022/03/09 10:01:11;;;;;;;4.22;1.83;;;11.90;99.90;;;;;;5054205;28;20127;-60
2022/03/09 10:03:38;;;;;;;6.95;2.60;;;12.00;99.90;;;;;;5041668;28;20052;-61
2022/03/09 10:06:05;;;;;;;3.30;1.50;;;12.20;99.90;;;;;;5054864;28;20049;-61
2022/03/09 10:08:35;;;;;;;3.88;1.42;;;12.40;99.90;;;;;;5058070;28;20147;-60
2022/03/09 10:11:03;;;;;;;2.78;0.98;;;12.40;99.90;;;;;;5056600;28;20094;-60
2022/03/09 10:13:31;;;;;;;2.67;1.40;;;12.50;99.90;;;;;;5057103;28;20490;-61
2022/03/09 10:16:13;;;;;;;4.60;1.70;;;12.50;99.90;;;;;;5055983;28;20446;-61
2022/03/09 10:18:44;;;;;;;5.43;1.55;;;12.40;99.90;;;;;;5049897;28;20068;-60
2022/03/09 10:21:17;;;;;;;7.80;2.05;;;12.20;99.90;;;;;;5026185;28;20068;-62
2022/03/09 10:23:56;;;;;;;4.03;1.90;;;12.00;99.90;;;;;;5032533;28;20053;-61
2022/03/09 10:26:28;;;;;;;3.88;1.45;;;12.00;99.90;;;;;;5044586;28;20832;-61
2022/03/09 10:28:56;;;;;;;3.28;1.33;;;12.00;99.90;;;;;;5049823;28;20091;-61
2022/03/09 10:31:43;;;;;;;6.20;1.52;;;12.10;99.90;;;;;;5059014;28;20092;-61
2022/03/09 10:34:23;;;;;;;4.32;1.65;;;12.20;99.90;;;;;;5057698;28;20118;-61
2022/03/09 10:36:56;;;;;;;3.50;1.50;;;12.30;99.90;;;;;;5062962;28;20084;-61
2022/03/09 10:39:27;;;;;;;4.72;1.67;;;12.30;99.90;;;;;;5062801;28;20134;-61
2022/03/09 10:41:55;;;;;;;4.47;1.63;;;12.40;99.90;;;;;;5045035;28;20083;-61
2022/03/09 10:44:41;;;;;;;6.85;1.52;;;12.50;99.90;;;;;;5036640;28;20099;-61
2022/03/09 10:47:08;;;;;;;6.70;2.08;;;12.60;99.90;;;;;;5056776;28;20488;-59
2022/03/09 10:49:34;;;;;;;3.05;1.23;;;12.70;99.90;;;;;;5057898;28;20467;-59
2022/03/09 10:52:02;;;;;;;3.90;1.50;;;12.70;99.90;;;;;;5060766;28;20056;-61
2022/03/09 10:54:29;;;;;;;4.38;1.90;;;12.70;99.90;;;;;;5059840;28;20139;-60
2022/03/09 10:57:06;;;;;;;7.40;1.80;;;12.70;99.90;;;;;;5060223;28;20123;-61
2022/03/09 10:59:50;;;;;;;5.22;2.17;;;12.70;99.90;;;;;;5041298;28;20458;-61
2022/03/09 11:02:23;;;;;;;;;;;12.70;99.90;;;;;;5049183;28;20129;-60
2022/03/09 11:05:25;;;;;;;4.68;1.73;;;12.60;99.90;;;;;;5040665;28;19935;-61
2022/03/09 11:07:52;;;;;;;4.82;2.03;;;12.70;99.90;;;;;;4942723;28;20051;-59
2022/03/09 11:10:19;;;;;;;3.92;1.90;;;12.90;99.90;;;;;;5005246;28;20048;-61
2022/03/09 11:12:46;;;;;;;6.47;2.08;;;12.90;99.90;;;;;;5061669;28;20211;-61
2022/03/09 11:15:15;;;;;;;4.05;2.20;;;13.00;99.90;;;;;;5027669;28;20052;-61
2022/03/09 11:17:41;;;;;;;3.55;1.60;;;13.20;99.90;;;;;;5032124;28;20081;-61
2022/03/09 11:20:09;;;;;;;3.42;1.30;;;13.50;99.90;;;;;;5047115;28;20060;-59
2022/03/09 11:22:36;;;;;;;4.63;2.13;;;13.70;99.90;;;;;;5043024;28;20095;-61
2022/03/09 11:25:03;;;;;;;3.97;1.35;;;13.80;99.90;;;;;;5061458;28;20091;-61
2022/03/09 11:27:31;;;;;;;4.22;1.60;;;13.80;99.90;;;;;;5023704;28;20162;-58
2022/03/09 11:30:00;;;;;;;6.57;1.88;;;13.70;99.90;;;;;;5025021;28;20431;-61
2022/03/09 11:32:34;;;;;;;5.13;1.75;;;13.60;99.90;;;;;;5021528;28;20127;-61
2022/03/09 11:35:01;;;;;;;4.80;1.67;;;13.60;99.90;;;;;;5059351;28;20131;-61
2022/03/09 11:37:38;;;;;;;6.07;1.75;;;13.60;99.90;;;;;;5059531;28;20049;-61
2022/03/09 11:40:10;;;;;;;4.00;1.75;;;13.50;99.90;;;;;;5051757;28;20469;-59
2022/03/09 11:42:38;;;;;;;;;;;13.40;99.90;;;;;;5047694;28;20303;-59
2022/03/09 11:45:14;;;;;;;3.95;1.70;;;13.40;99.90;;;;;;5050964;28;19924;-61
2022/03/09 11:48:04;;;;;;;5.20;1.80;;;13.50;99.90;;;;;;5051860;28;20375;-60
2022/03/09 11:50:33;;;;;;;4.63;1.60;;;13.50;99.90;;;;;;5028520;28;20097;-60
2022/03/09 11:53:00;;;;;;;5.35;1.67;;;13.50;99.90;;;;;;5046259;28;20096;-60
2022/03/09 11:55:27;;;;;;;4.25;1.70;;;13.50;99.90;;;;;;5058610;28;20059;-60
2022/03/09 11:58:05;;;;;;;5.15;1.65;;;13.30;99.90;;;;;;5052702;28;20057;-60
2022/03/09 12:00:31;;;;;;;4.35;1.92;;;13.30;99.90;;;;;;5061221;28;20132;-60
2022/03/09 12:02:58;;;;;;;3.88;1.50;;;13.40;99.90;;;;;;5024264;28;20060;-60
2022/03/09 12:05:31;;;;;;;4.38;1.63;;;13.40;99.90;;;;;;5031869;28;20147;-60
2022/03/09 12:07:59;;;;;;;4.22;1.67;;;13.40;99.90;;;;;;5061224;28;20060;-61
2022/03/09 12:10:45;;;;;;;4.30;1.60;;;13.30;99.90;;;;;;5052286;28;20049;-60
2022/03/09 12:13:50;;;;;;;3.42;1.60;;;13.20;99.90;;;;;;5047642;28;20451;-60
2022/03/09 12:16:23;;;;;;;5.00;1.40;;;13.30;99.90;;;;;;5025175;28;20419;-60
2022/03/09 12:19:06;;;;;;;3.13;1.20;;;13.50;99.90;;;;;;5059191;28;20045;-60
2022/03/09 12:21:40;;;;;;;3.45;1.33;;;13.60;99.90;;;;;;5060921;28;20064;-60
2022/03/09 12:24:20;;;;;;;5.25;1.40;;;13.60;99.90;;;;;;5058259;28;20041;-60
2022/03/09 12:26:50;;;;;;;3.60;1.85;;;13.60;99.90;;;;;;5050096;28;20543;-60
2022/03/09 12:29:26;;;;;;;3.85;1.52;;;13.70;99.90;;;;;;5060634;28;20084;-60
2022/03/09 12:31:59;;;;;;;1.83;0.85;;;13.80;99.90;;;;;;5056247;28;20155;-60
2022/03/09 12:34:26;;;;;;;;;;;13.90;99.90;;;;;;5055401;28;20132;-60
2022/03/09 12:36:54;;;;;;;1.95;0.90;;;13.80;99.90;;;;;;5059445;28;20356;-61
2022/03/09 12:39:22;;;;;;;2.72;1.00;;;13.90;99.90;;;;;;5057340;28;20094;-59
2022/03/09 12:41:55;;;;;;;2.17;1.20;;;14.00;99.90;;;;;;5018425;28;20052;-60
2022/03/09 12:44:22;;;;;;;3.33;1.35;;;14.10;99.90;;;;;;5053992;28;20092;-60
2022/03/09 12:46:58;;;;;;;3.15;1.23;;;14.00;99.90;;;;;;5056891;28;20147;-60
2022/03/09 12:49:31;;;;;;;2.78;1.42;;;13.90;99.90;;;;;;5040242;28;20144;-60
2022/03/09 12:52:01;;;;;;;2.60;1.23;;;13.70;99.90;;;;;;5053809;28;20079;-60
2022/03/09 12:54:34;;;;;;;3.72;1.30;;;13.60;99.90;;;;;;5045063;28;20464;-60
2022/03/09 12:57:17;;;;;;;2.47;1.25;;;13.60;99.90;;;;;;5040745;28;20422;-60
2022/03/09 13:00:04;;;;;;;3.35;1.58;;;13.60;99.90;;;;;;5042106;28;20107;-60